HAAB Airport Information

Runway Information
Runway 07R Length 12467 ft width 148 ft Elevation 7617 ft Threshold 1185 ft Heading 74
Runway 25L Length 12467 ft Width 148 ft Elevation 7594 ft Threshold 1170 ft Heading 254
Runway 07L Length 12139 ft width 148 ft Elevation 7617 ft Threshold 825 ft Heading 74
Runway 25R Length 12139 ft Width 148 ft Elevation 7604 ft Threshold 1235 ft Heading 254
Airport Frequencies
Type APP Name APP Frequency 119.7 MHZ
Type GND Name GND Frequency 121.9 MHZ
Type TWR Name TWR Frequency 118.1 MHZ
Airport Navaids
Type NDB Name Addis Abeba Frequency 333 KHZ
Type VOR-DME Name Addis Abeba Frequency 112900 KHZ
Type NDB Name Bole Frequency 352 KHZ
Type VOR-DME Name Gawasa Frequency 115900 KHZ
Airport Weather Information & NOTAM
ADDS - METARS form results

(1657 UTC 05 February 2023)
Data provider http://aviationweather.gov/metar/data/
 
METAR text: HAAB 051600Z 07012KT 9999 FEW025 18/M02 Q1025 NOSIG
Conditions at: HAAB (ADDIS ABABA/BOLE, ET) observed 1600 UTC 05 February 2023
Temperature: 18.0°C (64°F)
Dewpoint: -2.0°C (28°F) [RH = 26%]
Pressure (altimeter): 30.27 inches Hg (1025.0 mb)
Winds: from the ENE (70 degrees) at 14 MPH (12 knots; 6.2 m/s)
Visibility: 6 or more miles (10+ km)
Ceiling: at least 12,000 feet AGL
Clouds: few clouds at 2500 feet AGL
Weather: no significant weather observed at this time